Rosalia, Kansas
Current Conditions -  °F | °C
As of 4:15 PM on Sunday 23 Nov 2014 (Local Time) from KEQA Reporting Station
Overcast Overcast  
Wind Chill: 35°   Ceiling: 2200
Heat Index: 45°   Visibility: 10mi
Dew Point: 39°   Wind: 29mph
Humidity: 81%   Direction: 360°N
Pressure: 29.45"   Gusts: 37mph
Location:  37.82°N, 96.62°W
Report Text: KEQA 232215Z AUTO 36025G32KT 10SM OVC022 07/04 A2945 RMK AO2
Loading
Personal Weather Stations






























Interactive Weather Map New forecast layout! Learn more

10-Day Weather Forecast

Advertisements
Track Severe Weather on mobile